createdAt,value
2023-03-21T00:00:26.531Z,87.32
2023-03-21T00:01:26.508Z,87.22
2023-03-21T00:02:26.525Z,87.12
2023-03-21T00:03:26.568Z,87.12
2023-03-21T00:04:28.264Z,87.52
2023-03-21T00:05:26.522Z,87.32
2023-03-21T00:06:26.449Z,87.12
2023-03-21T00:07:26.459Z,87.01
2023-03-21T00:08:26.440Z,86.66
2023-03-21T00:09:26.426Z,86.91
2023-03-21T00:11:28.407Z,86.91
2023-03-21T00:12:26.407Z,87.18
2023-03-21T00:13:26.404Z,87.32
2023-03-21T00:14:26.378Z,87.22
2023-03-21T00:15:30.713Z,87.01
2023-03-21T00:16:35.309Z,86.50
2023-03-21T00:17:27.349Z,86.80
2023-03-21T00:18:26.336Z,87.12
2023-03-21T00:19:26.383Z,86.77
2023-03-21T00:20:26.330Z,86.60
2023-03-21T00:21:55.686Z,86.80
2023-03-21T00:22:28.290Z,86.80
2023-03-21T00:23:26.290Z,86.50
2023-03-21T00:24:26.261Z,86.08
2023-03-21T00:25:26.248Z,85.98
2023-03-21T00:26:26.257Z,86.80
2023-03-21T00:27:45.200Z,86.19
2023-03-21T00:28:28.226Z,86.60
2023-03-21T00:29:26.216Z,86.19
2023-03-21T00:30:26.199Z,86.40
2023-03-21T00:31:26.191Z,86.50
2023-03-21T00:32:26.194Z,86.80
2023-03-21T00:33:26.173Z,86.66
2023-03-21T00:34:36.650Z,86.56
2023-03-21T00:36:12.477Z,86.29
2023-03-21T00:36:28.148Z,86.70
2023-03-21T00:37:26.122Z,85.88
2023-03-21T00:38:26.117Z,86.05
2023-03-21T00:39:26.122Z,86.29
2023-03-21T00:40:32.933Z,86.50
2023-03-21T00:41:41.500Z,86.19
2023-03-21T00:42:28.073Z,86.40
2023-03-21T00:43:26.059Z,86.29
2023-03-21T00:44:26.047Z,86.70
2023-03-21T00:45:26.040Z,85.78
2023-03-21T00:46:32.963Z,86.19
2023-03-21T00:47:28.056Z,85.98
2023-03-21T00:48:26.073Z,86.50
2023-03-21T00:49:26.010Z,86.50
2023-03-21T00:50:25.975Z,86.50
2023-03-21T00:51:26.002Z,85.78
2023-03-21T00:52:39.819Z,86.60
2023-03-21T00:53:27.945Z,86.50
2023-03-21T00:54:25.949Z,85.88
2023-03-21T00:55:25.927Z,86.19
2023-03-21T00:56:25.930Z,86.15
2023-03-21T00:57:37.991Z,86.50
2023-03-21T00:58:27.915Z,86.19
2023-03-21T00:59:25.933Z,86.15
2023-03-21T01:00:25.902Z,86.29
2023-03-21T01:01:25.874Z,86.19
2023-03-21T01:02:25.880Z,86.29
2023-03-21T01:03:25.840Z,86.05
2023-03-21T01:04:25.862Z,85.78
2023-03-21T01:05:25.832Z,85.98
2023-03-21T01:06:25.818Z,86.19
2023-03-21T01:07:25.804Z,86.15
2023-03-21T01:08:31.170Z,86.29
2023-03-21T01:09:27.803Z,85.68
2023-03-21T01:10:25.779Z,86.29
2023-03-21T01:11:25.754Z,85.88
2023-03-21T01:12:25.766Z,85.47
2023-03-21T01:13:25.743Z,85.88
2023-03-21T01:14:26.736Z,86.29
2023-03-21T01:15:25.738Z,86.50
2023-03-21T01:16:25.786Z,85.98
2023-03-21T01:17:25.696Z,85.88
2023-03-21T01:18:25.684Z,85.88
2023-03-21T01:19:37.574Z,86.29
2023-03-21T01:20:27.668Z,86.19
2023-03-21T01:21:25.648Z,86.19
2023-03-21T01:22:25.652Z,86.50
2023-03-21T01:23:25.640Z,86.56
2023-03-21T01:24:25.632Z,86.29
2023-03-21T01:25:25.620Z,85.68
2023-03-21T01:26:25.606Z,86.19
2023-03-21T01:27:25.608Z,86.29
2023-03-21T01:28:25.583Z,86.19
2023-03-21T01:29:25.595Z,85.57
2023-03-21T01:30:28.712Z,85.57
2023-03-21T01:31:26.607Z,86.50
2023-03-21T01:32:25.554Z,85.36
2023-03-21T01:33:25.525Z,85.88
2023-03-21T01:34:25.549Z,85.78
2023-03-21T01:35:26.920Z,85.68
2023-03-21T01:36:26.277Z,85.47
2023-03-21T01:37:25.501Z,85.98
2023-03-21T01:38:25.479Z,85.98
2023-03-21T01:39:25.470Z,85.36
2023-03-21T01:40:25.454Z,86.19
2023-03-21T01:41:33.493Z,85.78
2023-03-21T01:42:27.448Z,85.68
2023-03-21T01:43:25.434Z,85.78
2023-03-21T01:44:25.417Z,85.88
2023-03-21T01:45:25.431Z,85.57
2023-03-21T01:46:25.482Z,85.63
2023-03-21T01:47:25.393Z,85.33
2023-03-21T01:48:25.371Z,85.68
2023-03-21T01:49:25.380Z,85.78
2023-03-21T01:50:25.345Z,85.26
2023-03-21T01:51:25.347Z,85.78
2023-03-21T01:52:38.280Z,85.06
2023-03-21T01:53:27.309Z,85.88
2023-03-21T01:54:25.307Z,85.26
2023-03-21T01:55:25.304Z,85.68
2023-03-21T01:56:25.294Z,85.36
2023-03-21T01:57:29.975Z,85.57
2023-03-21T01:58:27.273Z,85.68
2023-03-21T01:59:25.269Z,85.36
2023-03-21T02:00:25.246Z,85.88
2023-03-21T02:01:25.372Z,85.68
2023-03-21T02:02:25.240Z,85.88
2023-03-21T02:03:35.255Z,85.88
2023-03-21T02:04:27.247Z,85.88
2023-03-21T02:05:25.215Z,85.47
2023-03-21T02:06:25.184Z,85.36
2023-03-21T02:07:25.175Z,85.36
2023-03-21T02:08:36.807Z,85.47
2023-03-21T02:09:27.146Z,85.88
2023-03-21T02:10:25.160Z,86.08
2023-03-21T02:11:25.159Z,85.53
2023-03-21T02:12:25.112Z,86.29
2023-03-21T02:13:25.116Z,85.98
2023-03-21T02:14:29.314Z,85.88
2023-03-21T02:15:26.089Z,85.88
2023-03-21T02:16:25.127Z,86.19
2023-03-21T02:17:25.059Z,85.68
2023-03-21T02:18:25.061Z,86.19
2023-03-21T02:19:32.900Z,86.29
2023-03-21T02:20:27.040Z,86.29
2023-03-21T02:21:25.036Z,86.50
2023-03-21T02:22:25.022Z,86.64
2023-03-21T02:23:25.003Z,86.29
2023-03-21T02:24:24.999Z,86.70
2023-03-21T02:25:24.998Z,86.80
2023-03-21T02:26:28.493Z,86.91
2023-03-21T02:27:26.975Z,86.80
2023-03-21T02:28:24.959Z,86.60
2023-03-21T02:29:24.943Z,86.91
2023-03-21T02:30:49.273Z,86.70
2023-03-21T02:31:27.010Z,86.80
2023-03-21T02:32:36.529Z,86.74
2023-03-21T02:33:26.896Z,86.70
2023-03-21T02:34:24.911Z,86.40
2023-03-21T02:35:24.888Z,86.50
2023-03-21T02:36:24.891Z,85.98
2023-03-21T02:37:36.724Z,86.29
2023-03-21T02:38:26.851Z,86.19
2023-03-21T02:39:24.826Z,86.29
2023-03-21T02:40:24.831Z,86.29
2023-03-21T02:41:27.458Z,86.50
2023-03-21T02:42:24.806Z,85.88
2023-03-21T02:43:24.810Z,86.08
2023-03-21T02:44:24.780Z,85.36
2023-03-21T02:45:24.793Z,86.08
2023-03-21T02:46:33.260Z,86.64
2023-03-21T02:47:26.744Z,86.33
2023-03-21T02:48:31.203Z,86.13
2023-03-21T02:49:26.741Z,86.50
2023-03-21T02:50:24.714Z,86.08
2023-03-21T02:51:24.718Z,86.08
2023-03-21T02:52:37.320Z,86.23
2023-03-21T02:53:26.682Z,85.92
2023-03-21T02:54:38.158Z,86.29
2023-03-21T02:55:26.674Z,86.23
2023-03-21T02:56:24.670Z,86.19
2023-03-21T02:57:31.378Z,86.60
2023-03-21T02:58:26.640Z,86.19
2023-03-21T02:59:24.629Z,86.19
2023-03-21T03:00:24.646Z,86.29
2023-03-21T03:01:24.638Z,86.29
2023-03-21T03:02:24.597Z,85.88
2023-03-21T03:03:34.046Z,86.29
2023-03-21T03:04:26.612Z,86.19
2023-03-21T03:05:24.566Z,86.08
2023-03-21T03:06:24.563Z,85.98
2023-03-21T03:07:24.542Z,86.50
2023-03-21T03:08:37.565Z,86.29
2023-03-21T03:09:26.529Z,86.08
2023-03-21T03:10:24.520Z,86.60
2023-03-21T03:11:24.520Z,86.29
2023-03-21T03:12:24.472Z,86.70
2023-03-21T03:13:25.484Z,86.91
2023-03-21T03:15:26.469Z,86.29
2023-03-21T03:16:24.441Z,86.29
2023-03-21T03:17:24.596Z,85.88
2023-03-21T03:18:24.432Z,86.35
2023-03-21T03:19:24.419Z,86.19
2023-03-21T03:20:24.405Z,85.98
2023-03-21T03:21:24.390Z,85.78
2023-03-21T03:22:24.402Z,85.98
2023-03-21T03:23:24.386Z,86.08
2023-03-21T03:24:24.360Z,85.98
2023-03-21T03:25:36.017Z,85.68
2023-03-21T03:26:26.355Z,85.47
2023-03-21T03:27:24.324Z,86.19
2023-03-21T03:28:24.321Z,86.50
2023-03-21T03:29:24.319Z,86.60
2023-03-21T03:30:29.635Z,86.91
2023-03-21T03:31:26.444Z,87.12
2023-03-21T03:32:24.283Z,87.01
2023-03-21T03:33:24.272Z,87.22
2023-03-21T03:34:24.251Z,86.80
2023-03-21T03:35:24.264Z,86.70
2023-03-21T03:36:32.114Z,87.01
2023-03-21T03:37:26.250Z,87.12
2023-03-21T03:38:24.222Z,87.12
2023-03-21T03:39:24.207Z,87.22
2023-03-21T03:40:24.181Z,87.73
2023-03-21T03:41:25.568Z,86.70
2023-03-21T03:42:28.392Z,87.01
2023-03-21T03:43:25.175Z,87.42
2023-03-21T03:44:24.158Z,87.22
2023-03-21T03:45:24.147Z,87.22
2023-03-21T03:46:24.195Z,87.01
2023-03-21T03:47:32.794Z,86.91
2023-03-21T03:48:26.114Z,86.91
2023-03-21T03:49:24.099Z,86.70
2023-03-21T03:50:24.096Z,87.01
2023-03-21T03:51:24.096Z,87.01
2023-03-21T03:52:24.067Z,87.32
2023-03-21T03:53:24.039Z,87.22
2023-03-21T03:54:24.040Z,87.22
2023-03-21T03:55:24.049Z,87.22
2023-03-21T03:56:24.015Z,87.22
2023-03-21T03:57:24.028Z,87.12
2023-03-21T03:58:29.065Z,87.22
2023-03-21T03:59:25.997Z,87.32
2023-03-21T04:00:23.984Z,87.22
2023-03-21T04:01:23.995Z,87.32
2023-03-21T04:02:23.994Z,87.22
2023-03-21T04:03:24.055Z,87.42
2023-03-21T04:04:23.984Z,87.12
2023-03-21T04:05:23.940Z,87.42
2023-03-21T04:06:23.923Z,87.26
2023-03-21T04:07:23.921Z,87.22
2023-03-21T04:08:23.933Z,87.22
2023-03-21T04:09:37.268Z,87.52
2023-03-21T04:10:25.885Z,87.01
2023-03-21T04:11:23.922Z,87.32
2023-03-21T04:12:23.888Z,87.01
2023-03-21T04:13:23.847Z,86.91
2023-03-21T04:14:24.561Z,87.26
2023-03-21T04:15:23.826Z,87.01
2023-03-21T04:16:23.821Z,86.50
2023-03-21T04:17:23.812Z,87.42
2023-03-21T04:18:23.786Z,87.22
2023-03-21T04:19:23.798Z,87.15
2023-03-21T04:20:43.401Z,87.46
2023-03-21T04:21:25.770Z,87.15
2023-03-21T04:22:23.734Z,87.46
2023-03-21T04:23:23.727Z,87.22
2023-03-21T04:24:23.737Z,87.26
2023-03-21T04:25:32.766Z,87.26
2023-03-21T04:26:25.698Z,87.26
2023-03-21T04:27:23.706Z,87.46
2023-03-21T04:28:23.710Z,86.95
2023-03-21T04:29:23.673Z,87.57
2023-03-21T04:30:23.656Z,87.67
2023-03-21T04:31:26.180Z,87.67
2023-03-21T04:32:24.651Z,87.57
2023-03-21T04:33:23.619Z,87.77
2023-03-21T04:34:23.613Z,87.87
2023-03-21T04:35:23.631Z,88.18
2023-03-21T04:36:23.586Z,87.87
2023-03-21T04:37:23.616Z,88.04
2023-03-21T04:38:23.569Z,87.57
2023-03-21T04:39:23.553Z,88.08
2023-03-21T04:40:23.552Z,88.08
2023-03-21T04:41:23.552Z,87.98
2023-03-21T04:42:23.535Z,88.04
2023-03-21T04:43:23.512Z,87.77
2023-03-21T04:44:23.506Z,87.84
2023-03-21T04:45:55.436Z,88.04
2023-03-21T04:46:23.503Z,87.87
2023-03-21T04:47:23.512Z,87.73
2023-03-21T04:48:23.473Z,88.35
2023-03-21T04:49:23.436Z,88.35
2023-03-21T04:50:23.464Z,88.56
2023-03-21T04:51:23.442Z,89.07
2023-03-21T04:52:25.329Z,88.66
2023-03-21T04:53:24.409Z,88.86
2023-03-21T04:54:23.393Z,88.66
2023-03-21T04:55:23.404Z,88.59
2023-03-21T04:56:23.374Z,88.96
2023-03-21T04:57:23.344Z,89.01
2023-03-21T04:58:23.360Z,88.66
2023-03-21T04:59:23.357Z,88.56
2023-03-21T05:00:23.310Z,88.49
2023-03-21T05:01:23.411Z,88.56
2023-03-21T05:02:23.326Z,88.45
2023-03-21T05:03:23.277Z,88.76
2023-03-21T05:04:23.373Z,89.07
2023-03-21T05:05:23.288Z,89.11
2023-03-21T05:06:23.279Z,89.07
2023-03-21T05:07:23.233Z,88.66
2023-03-21T05:08:23.260Z,87.94
2023-03-21T05:09:23.271Z,88.08
2023-03-21T05:10:23.221Z,88.18
2023-03-21T05:11:23.240Z,88.18
2023-03-21T05:12:23.201Z,88.39
2023-03-21T05:13:23.185Z,88.24
2023-03-21T05:14:23.197Z,88.18
2023-03-21T05:15:23.190Z,88.39
2023-03-21T05:16:23.213Z,88.08
2023-03-21T05:17:23.243Z,87.77
2023-03-21T05:18:23.148Z,87.87
2023-03-21T05:19:23.139Z,88.18
2023-03-21T05:20:23.129Z,88.08
2023-03-21T05:21:23.131Z,88.08
2023-03-21T05:22:23.125Z,87.98
2023-03-21T05:23:23.086Z,88.08
2023-03-21T05:24:23.078Z,88.08
2023-03-21T05:25:23.085Z,87.87
2023-03-21T05:26:23.072Z,88.08
2023-03-21T05:27:23.056Z,87.73
2023-03-21T05:28:23.056Z,87.84
2023-03-21T05:29:23.054Z,87.57
2023-03-21T05:30:24.021Z,87.63
2023-03-21T05:31:23.069Z,87.42
2023-03-21T05:32:23.026Z,86.70
2023-03-21T05:33:22.984Z,86.60
2023-03-21T05:34:22.972Z,87.26
2023-03-21T05:35:22.981Z,87.67
2023-03-21T05:36:22.973Z,87.63
2023-03-21T05:37:22.933Z,87.22
2023-03-21T05:38:22.931Z,87.84
2023-03-21T05:39:22.958Z,87.12
2023-03-21T05:40:22.906Z,87.26
2023-03-21T05:41:22.926Z,87.52
2023-03-21T05:42:22.916Z,87.22
2023-03-21T05:43:22.871Z,87.22
2023-03-21T05:44:22.874Z,86.70
2023-03-21T05:45:22.880Z,87.01
2023-03-21T05:46:22.984Z,87.18
2023-03-21T05:47:22.819Z,86.60
2023-03-21T05:48:22.872Z,86.60
2023-03-21T05:49:22.819Z,86.80
2023-03-21T05:50:22.798Z,86.15
2023-03-21T05:51:22.811Z,85.88
2023-03-21T05:52:22.801Z,86.08
2023-03-21T05:53:23.327Z,86.29
2023-03-21T05:54:23.753Z,86.08
2023-03-21T05:55:22.775Z,86.50
2023-03-21T05:56:22.759Z,85.84
2023-03-21T05:57:22.734Z,85.53
2023-03-21T05:58:22.715Z,85.68
2023-03-21T05:59:22.722Z,86.05
2023-03-21T06:00:22.696Z,85.88
2023-03-21T06:01:22.682Z,85.78
2023-03-21T06:02:22.697Z,85.94
2023-03-21T06:03:22.723Z,86.08
2023-03-21T06:04:22.627Z,85.63
2023-03-21T06:05:22.648Z,86.15
2023-03-21T06:06:22.660Z,86.05
2023-03-21T06:07:22.599Z,85.63
2023-03-21T06:08:22.599Z,85.33
2023-03-21T06:09:22.616Z,86.05
2023-03-21T06:10:22.587Z,85.84
2023-03-21T06:11:22.577Z,85.53
2023-03-21T06:12:22.580Z,85.53
2023-03-21T06:13:22.555Z,85.22
2023-03-21T06:14:22.547Z,85.43
2023-03-21T06:15:22.541Z,85.84
2023-03-21T06:16:22.630Z,85.94
2023-03-21T06:17:22.509Z,85.53
2023-03-21T06:18:22.506Z,85.53
2023-03-21T06:19:22.524Z,85.43
2023-03-21T06:20:22.472Z,84.61
2023-03-21T06:21:22.489Z,85.02
2023-03-21T06:22:22.492Z,85.02
2023-03-21T06:23:22.425Z,85.22
2023-03-21T06:24:22.465Z,85.43
2023-03-21T06:25:22.453Z,85.39
2023-03-21T06:26:22.451Z,84.94
2023-03-21T06:27:22.403Z,84.22
2023-03-21T06:28:22.390Z,84.16
2023-03-21T06:29:22.397Z,84.16
2023-03-21T06:30:22.375Z,84.56
2023-03-21T06:31:22.406Z,84.42
2023-03-21T06:32:22.372Z,84.53
2023-03-21T06:33:22.352Z,83.61
2023-03-21T06:34:22.329Z,83.61
2023-03-21T06:35:22.290Z,83.91
2023-03-21T06:36:22.318Z,83.75
2023-03-21T06:37:22.286Z,84.47
2023-03-21T06:38:22.277Z,84.26
2023-03-21T06:39:22.296Z,84.26
2023-03-21T06:40:22.258Z,84.26
2023-03-21T06:41:22.224Z,84.88
2023-03-21T06:42:22.232Z,84.47
2023-03-21T06:43:22.260Z,85.18
2023-03-21T06:44:22.208Z,84.77
2023-03-21T06:45:22.220Z,84.22
2023-03-21T06:46:22.239Z,84.16
2023-03-21T06:47:22.161Z,84.26
2023-03-21T06:48:22.185Z,85.53
2023-03-21T06:49:22.195Z,85.22
2023-03-21T06:50:22.154Z,84.77
2023-03-21T06:51:22.122Z,85.33
2023-03-21T06:52:22.141Z,84.88
2023-03-21T06:53:22.105Z,85.39
2023-03-21T06:54:22.098Z,84.98
2023-03-21T06:55:22.107Z,84.88
2023-03-21T06:56:22.086Z,85.28
2023-03-21T06:57:22.047Z,85.28
2023-03-21T06:58:22.060Z,85.18
2023-03-21T06:59:22.061Z,85.04
2023-03-21T07:00:22.059Z,84.74
2023-03-21T07:01:22.164Z,84.74
2023-03-21T07:02:22.049Z,84.42
2023-03-21T07:03:22.012Z,84.22
2023-03-21T07:04:22.003Z,83.81
2023-03-21T07:05:21.993Z,83.56
2023-03-21T07:06:21.968Z,83.98
2023-03-21T07:07:21.975Z,83.46
2023-03-21T07:08:21.924Z,83.81
2023-03-21T07:09:21.945Z,83.77
2023-03-21T07:10:21.920Z,83.46
2023-03-21T07:11:21.908Z,83.56
2023-03-21T07:12:21.888Z,83.46
2023-03-21T07:13:21.928Z,83.46
2023-03-21T07:14:21.881Z,83.46
2023-03-21T07:15:21.856Z,83.36
2023-03-21T07:16:21.975Z,83.46
2023-03-21T07:17:21.826Z,83.36
2023-03-21T07:18:21.829Z,83.36
2023-03-21T07:19:21.853Z,83.26
2023-03-21T07:20:21.821Z,83.46
2023-03-21T07:21:21.793Z,82.91
2023-03-21T07:22:21.781Z,81.99
2023-03-21T07:23:21.819Z,82.50
2023-03-21T07:24:21.765Z,82.36
2023-03-21T07:25:21.791Z,82.26
2023-03-21T07:26:21.743Z,81.40
2023-03-21T07:27:21.729Z,81.20
2023-03-21T07:28:21.737Z,80.68
2023-03-21T07:29:21.734Z,80.72
2023-03-21T07:30:21.713Z,81.40
2023-03-21T07:31:21.685Z,81.43
2023-03-21T07:32:21.666Z,80.99
2023-03-21T07:33:21.705Z,81.02
2023-03-21T07:34:21.661Z,80.99
2023-03-21T07:35:21.636Z,80.85
2023-03-21T07:36:21.633Z,79.93
2023-03-21T07:37:21.686Z,80.03
2023-03-21T07:38:21.649Z,79.52
2023-03-21T07:39:21.570Z,80.13
2023-03-21T07:40:21.616Z,79.62
2023-03-21T07:41:21.599Z,79.62
2023-03-21T07:42:21.567Z,79.52
2023-03-21T07:43:21.585Z,79.62
2023-03-21T07:44:21.546Z,79.68
2023-03-21T07:45:21.582Z,79.79
2023-03-21T07:46:21.533Z,79.58
2023-03-21T07:47:21.526Z,79.03
2023-03-21T07:48:21.555Z,79.58
2023-03-21T07:49:21.495Z,79.38
2023-03-21T07:50:21.470Z,79.58
2023-03-21T07:51:21.479Z,79.27
2023-03-21T07:52:21.436Z,78.66
2023-03-21T07:53:21.450Z,79.58
2023-03-21T07:54:21.452Z,79.52
2023-03-21T07:55:21.425Z,79.52
2023-03-21T07:56:21.424Z,79.31
2023-03-21T07:57:21.439Z,80.17
2023-03-21T07:58:21.380Z,80.23
2023-03-21T07:59:21.408Z,79.82
2023-03-21T08:00:21.394Z,80.54
2023-03-21T08:01:21.335Z,80.44
2023-03-21T08:02:21.403Z,80.33
2023-03-21T08:03:21.431Z,79.38
2023-03-21T08:04:21.286Z,80.19
2023-03-21T08:05:21.332Z,80.19
2023-03-21T08:06:21.309Z,79.82
2023-03-21T08:07:21.271Z,80.17
2023-03-21T08:08:21.266Z,80.27
2023-03-21T08:09:21.282Z,80.07
2023-03-21T08:10:21.312Z,80.58
2023-03-21T08:11:21.215Z,80.78
2023-03-21T08:12:21.236Z,80.85
2023-03-21T08:13:21.220Z,80.33
2023-03-21T08:14:21.265Z,80.13
2023-03-21T08:15:21.208Z,79.82
2023-03-21T08:16:21.233Z,80.74
2023-03-21T08:17:21.192Z,80.74
2023-03-21T08:18:21.163Z,80.03
2023-03-21T08:19:21.148Z,79.82
2023-03-21T08:20:22.152Z,79.79
2023-03-21T08:21:21.145Z,79.21
2023-03-21T08:22:21.107Z,80.03
2023-03-21T08:23:21.103Z,79.79
2023-03-21T08:24:21.147Z,79.99
2023-03-21T08:25:21.089Z,79.58
2023-03-21T08:26:21.099Z,78.63
2023-03-21T08:27:21.044Z,78.63
2023-03-21T08:28:21.104Z,78.66
2023-03-21T08:29:21.036Z,79.34
2023-03-21T08:30:21.015Z,77.97
2023-03-21T08:31:21.100Z,77.73
2023-03-21T08:32:21.026Z,77.83
2023-03-21T08:33:20.984Z,77.63
2023-03-21T08:34:20.972Z,77.83
2023-03-21T08:35:21.009Z,77.83
2023-03-21T08:36:21.006Z,77.83
2023-03-21T08:37:20.948Z,77.94
2023-03-21T08:38:20.927Z,77.76
2023-03-21T08:39:21.005Z,78.34
2023-03-21T08:40:20.934Z,78.14
2023-03-21T08:41:20.886Z,77.42
2023-03-21T08:42:20.900Z,77.29
2023-03-21T08:43:20.900Z,77.25
2023-03-21T08:44:20.871Z,75.71
2023-03-21T08:45:20.888Z,75.37
2023-03-21T08:46:20.884Z,74.46
2023-03-21T08:47:20.809Z,74.76
2023-03-21T08:48:20.929Z,75.17
2023-03-21T08:49:20.839Z,74.52
2023-03-21T08:50:20.806Z,74.18
2023-03-21T08:51:20.788Z,73.88
2023-03-21T08:52:20.788Z,73.88
2023-03-21T08:53:20.744Z,73.27
2023-03-21T08:54:20.773Z,72.96
2023-03-21T08:55:20.756Z,73.57
2023-03-21T08:56:20.754Z,73.98
2023-03-21T08:57:20.702Z,74.01
2023-03-21T08:58:20.714Z,75.27
2023-03-21T08:59:20.714Z,74.97
2023-03-21T09:00:20.762Z,75.13
2023-03-21T09:01:20.770Z,74.63
2023-03-21T09:02:20.658Z,74.69
2023-03-21T09:03:20.623Z,73.77
2023-03-21T09:04:20.726Z,73.57
2023-03-21T09:05:20.666Z,73.98
2023-03-21T09:06:20.644Z,74.73
2023-03-21T09:07:20.610Z,74.93
2023-03-21T09:08:20.591Z,74.01
2023-03-21T09:09:20.596Z,74.76
2023-03-21T09:10:22.211Z,74.83
2023-03-21T09:11:21.559Z,74.49
2023-03-21T09:12:20.558Z,73.74
2023-03-21T09:13:20.563Z,73.54
2023-03-21T09:14:23.891Z,74.05
2023-03-21T09:15:22.497Z,73.94
2023-03-21T09:16:20.582Z,74.05
2023-03-21T09:17:21.268Z,74.08
2023-03-21T09:18:21.487Z,72.82
2023-03-21T09:19:20.508Z,71.70
2023-03-21T09:20:20.475Z,71.16
2023-03-21T09:21:20.441Z,71.23
2023-03-21T09:22:20.464Z,70.31
2023-03-21T09:23:20.465Z,69.97
2023-03-21T09:24:20.403Z,70.89
2023-03-21T09:25:20.423Z,71.19
2023-03-21T09:26:20.394Z,70.82
2023-03-21T09:27:20.380Z,70.92
2023-03-21T09:28:20.375Z,70.41
2023-03-21T09:29:20.417Z,70.75
2023-03-21T09:30:20.347Z,71.09
2023-03-21T09:31:20.417Z,71.39
2023-03-21T09:32:20.360Z,72.96
2023-03-21T09:33:20.289Z,72.89
2023-03-21T09:34:20.317Z,72.41
2023-03-21T09:35:20.519Z,71.94
2023-03-21T09:36:20.299Z,72.11
2023-03-21T09:37:20.279Z,72.31
2023-03-21T09:38:20.252Z,73.02
2023-03-21T09:39:20.261Z,73.10
2023-03-21T09:40:20.276Z,73.10
2023-03-21T09:41:20.208Z,72.65
2023-03-21T09:42:20.221Z,71.84
2023-03-21T09:43:20.289Z,71.70
2023-03-21T09:44:20.213Z,71.94
2023-03-21T09:45:20.170Z,72.11
2023-03-21T09:46:20.269Z,71.84
2023-03-21T09:47:20.173Z,71.84
2023-03-21T09:48:20.232Z,73.50
2023-03-21T09:49:20.177Z,73.30
2023-03-21T09:50:20.512Z,74.15
2023-03-21T09:51:20.095Z,74.86
2023-03-21T09:52:20.123Z,74.73
2023-03-21T09:53:20.106Z,74.38
2023-03-21T09:54:20.099Z,73.16
2023-03-21T09:55:20.176Z,73.36
2023-03-21T09:56:20.224Z,72.75
2023-03-21T09:57:20.075Z,73.67
2023-03-21T09:58:20.056Z,74.93
2023-03-21T09:59:20.061Z,73.16
2023-03-21T10:00:20.025Z,72.55
2023-03-21T10:01:20.084Z,72.75
2023-03-21T10:02:19.992Z,72.62
2023-03-21T10:03:20.028Z,72.28
2023-03-21T10:04:20.004Z,70.95
2023-03-21T10:05:19.977Z,71.16
2023-03-21T10:06:20.210Z,72.04
2023-03-21T10:07:19.973Z,70.79
2023-03-21T10:08:19.947Z,70.28
2023-03-21T10:09:19.936Z,69.97
2023-03-21T10:10:19.917Z,69.43
2023-03-21T10:11:19.884Z,69.23
2023-03-21T10:12:19.897Z,69.46
2023-03-21T10:13:19.919Z,69.23
2023-03-21T10:14:19.890Z,69.64
2023-03-21T10:15:19.859Z,68.79
2023-03-21T10:16:19.877Z,69.17
2023-03-21T10:17:19.862Z,68.15
2023-03-21T10:18:19.837Z,69.20
2023-03-21T10:19:19.806Z,68.55
2023-03-21T10:20:19.831Z,69.20
2023-03-21T10:21:43.160Z,70.38
2023-03-21T10:22:21.781Z,70.58
2023-03-21T10:23:19.837Z,69.74
2023-03-21T10:24:19.770Z,69.94
2023-03-21T10:25:19.731Z,68.62
2023-03-21T10:26:21.396Z,68.82
2023-03-21T10:27:20.745Z,70.38
2023-03-21T10:28:19.716Z,70.28
2023-03-21T10:29:19.749Z,72.14
2023-03-21T10:30:19.702Z,71.73
2023-03-21T10:31:19.686Z,71.53
2023-03-21T10:32:19.678Z,71.73
2023-03-21T10:33:19.710Z,71.91
2023-03-21T10:34:19.653Z,71.02
2023-03-21T10:35:19.624Z,71.64
2023-03-21T10:36:20.715Z,71.02
2023-03-21T10:37:19.614Z,71.02
2023-03-21T10:38:19.593Z,71.02
2023-03-21T10:39:19.658Z,71.43
2023-03-21T10:40:19.595Z,71.67
2023-03-21T10:41:19.568Z,71.77
2023-03-21T10:42:19.594Z,72.41
2023-03-21T10:43:19.561Z,73.40
2023-03-21T10:44:19.556Z,72.28
2023-03-21T10:45:19.562Z,71.77
2023-03-21T10:46:52.004Z,72.41
2023-03-21T10:47:19.674Z,72.62
2023-03-21T10:48:19.663Z,73.10
2023-03-21T10:49:19.498Z,72.58
2023-03-21T10:50:19.572Z,72.58
2023-03-21T10:51:19.456Z,72.17
2023-03-21T10:52:19.476Z,73.13
2023-03-21T10:53:19.432Z,73.74
2023-03-21T10:54:19.470Z,74.01
2023-03-21T10:55:19.435Z,73.71
2023-03-21T10:56:19.421Z,73.47
2023-03-21T10:57:19.425Z,71.56
2023-03-21T10:58:19.403Z,73.30
2023-03-21T10:59:20.480Z,73.13
2023-03-21T11:00:20.369Z,73.64
2023-03-21T11:01:19.370Z,73.77
2023-03-21T11:02:19.403Z,74.49
2023-03-21T11:03:19.338Z,74.58
2023-03-21T11:04:19.317Z,74.35
2023-03-21T11:05:20.774Z,74.45
2023-03-21T11:06:20.287Z,75.37
2023-03-21T11:07:19.295Z,75.51
2023-03-21T11:08:19.277Z,75.40
2023-03-21T11:09:19.269Z,76.22
2023-03-21T11:10:28.195Z,75.30
2023-03-21T11:11:21.243Z,75.51
2023-03-21T11:12:19.277Z,75.92
2023-03-21T11:13:19.246Z,76.93
2023-03-21T11:14:19.208Z,76.53
2023-03-21T11:15:19.198Z,77.34
2023-03-21T11:16:19.205Z,77.24
2023-03-21T11:17:19.225Z,78.26
2023-03-21T11:18:19.232Z,77.37
2023-03-21T11:19:19.174Z,79.32
2023-03-21T11:20:19.156Z,78.70
2023-03-21T11:21:19.152Z,78.70
2023-03-21T11:22:19.147Z,79.75
2023-03-21T11:23:20.736Z,79.75
2023-03-21T11:24:20.093Z,80.68
2023-03-21T11:25:19.100Z,80.71
2023-03-21T11:26:19.090Z,81.09
2023-03-21T11:27:19.061Z,81.49
2023-03-21T11:28:19.059Z,82.35
2023-03-21T11:29:19.444Z,82.55
2023-03-21T11:30:19.032Z,84.42
2023-03-21T11:31:19.146Z,84.94
2023-03-21T11:32:19.012Z,84.69
2023-03-21T11:33:19.002Z,85.82
2023-03-21T11:34:19.015Z,86.02
2023-03-21T11:35:19.910Z,84.53
2023-03-21T11:36:20.070Z,85.14
2023-03-21T11:37:18.953Z,86.98
2023-03-21T11:38:18.952Z,87.38
2023-03-21T11:39:18.933Z,85.28
2023-03-21T11:40:18.919Z,86.57
2023-03-21T11:41:19.505Z,87.08
2023-03-21T11:42:18.927Z,86.77
2023-03-21T11:43:18.890Z,86.47
2023-03-21T11:44:18.894Z,85.65
2023-03-21T11:45:18.896Z,86.43
2023-03-21T11:46:18.909Z,85.41
2023-03-21T11:47:18.882Z,85.21
2023-03-21T11:48:18.949Z,85.00
2023-03-21T11:49:18.827Z,84.63
2023-03-21T11:50:18.821Z,86.12
2023-03-21T11:51:18.799Z,84.74
2023-03-21T11:52:18.785Z,85.49
2023-03-21T11:53:18.801Z,87.12
2023-03-21T11:54:18.775Z,85.89
2023-03-21T11:55:18.778Z,86.98
2023-03-21T11:56:18.745Z,86.47
2023-03-21T11:57:19.740Z,84.63
2023-03-21T11:58:18.723Z,85.24
2023-03-21T11:59:18.736Z,85.38
2023-03-21T12:00:18.699Z,85.65
2023-03-21T12:01:18.713Z,85.24
2023-03-21T12:02:18.737Z,85.71
2023-03-21T12:03:18.832Z,85.65
2023-03-21T12:04:18.762Z,86.16
2023-03-21T12:05:18.673Z,86.43
2023-03-21T12:06:18.641Z,84.80
2023-03-21T12:07:18.622Z,84.33
2023-03-21T12:08:18.645Z,84.53
2023-03-21T12:09:18.769Z,83.75
2023-03-21T12:10:18.606Z,84.36
2023-03-21T12:11:18.607Z,85.38
2023-03-21T12:12:20.223Z,85.38
2023-03-21T12:13:20.572Z,85.35
2023-03-21T12:14:18.546Z,85.38
2023-03-21T12:15:19.544Z,85.04
2023-03-21T12:16:18.651Z,84.83
2023-03-21T12:17:18.516Z,85.14
2023-03-21T12:18:18.514Z,84.94
2023-03-21T12:19:18.521Z,84.06
2023-03-21T12:20:18.495Z,84.57
2023-03-21T12:21:18.479Z,85.79
2023-03-21T12:22:18.470Z,85.28
2023-03-21T12:23:18.477Z,85.69
2023-03-21T12:24:18.446Z,86.61
2023-03-21T12:25:18.452Z,86.35
2023-03-21T12:26:18.434Z,86.96
2023-03-21T12:27:18.406Z,87.77
2023-03-21T12:28:30.104Z,88.18
2023-03-21T12:29:20.395Z,87.53
2023-03-21T12:30:18.391Z,88.49
2023-03-21T12:31:18.432Z,87.16
2023-03-21T12:32:18.374Z,87.88
2023-03-21T12:33:18.342Z,88.08
2023-03-21T12:34:18.336Z,90.33
2023-03-21T12:35:18.426Z,89.47
2023-03-21T12:36:18.352Z,89.20
2023-03-21T12:37:18.294Z,90.23
2023-03-21T12:38:18.319Z,89.92
2023-03-21T12:39:18.262Z,90.64
2023-03-21T12:40:18.261Z,90.43
2023-03-21T12:41:18.290Z,90.23
2023-03-21T12:42:18.244Z,89.72
2023-03-21T12:43:18.230Z,90.43
2023-03-21T12:44:18.240Z,90.53
2023-03-21T12:45:18.207Z,90.53
2023-03-21T12:46:18.265Z,91.05
2023-03-21T12:47:18.205Z,91.56
2023-03-21T12:48:18.209Z,91.15
2023-03-21T12:49:18.165Z,91.09
2023-03-21T12:50:18.144Z,91.19
2023-03-21T12:51:18.257Z,91.70
2023-03-21T12:52:18.116Z,92.42
2023-03-21T12:53:18.101Z,92.78
2023-03-21T12:54:18.108Z,92.01